Weather reports worldwide

Advertisment
Tibenham Airfield, United Kingdom (3931): temperature & dewpoint: 12.09.2019 05:00:00 - 18.09.2019 05:00:00 (BST)Tibenham Airfield, United Kingdom (3931): temperature -20cm & temperature -100cm: 12.09.2019 05:00:00 - 18.09.2019 05:00:00 (BST)Tibenham Airfield, United Kingdom (3931): wind speed & gusts: 12.09.2019 05:00:00 - 18.09.2019 05:00:00 (BST)Tibenham Airfield, United Kingdom (3931): wind direction: 12.09.2019 05:00:00 - 18.09.2019 05:00:00 (BST)Tibenham Airfield, United Kingdom (3931): reduced air pressure: 12.09.2019 05:00:00 - 18.09.2019 05:00:00 (BST)Tibenham Airfield, United Kingdom (3931): sunshine duration: 12.09.2019 05:00:00 - 18.09.2019 05:00:00 (BST)Tibenham Airfield, United Kingdom (3931): precipitation: 12.09.2019 05:00:00 - 18.09.2019 05:00:00 (BST)
Date & Time tt [°C] td [°C] tt -20cm [°C] tt -100cm [°C] ff [km/h] ff [kn] fx [km/h] fx [kn] dd ppp [hPa] sd [min] rr [mm]
18.09.2019 05:00:00 - - - - - - - - - - - -
18.09.2019 04:00:00 4,1 3,3 - - 8 4 - - WNW 1028,5 0 0,0
18.09.2019 03:00:00 4,7 3,9 - - 8 4 - - W 1028,2 0 0,0
18.09.2019 02:00:00 4,9 3,6 - - 9 5 - - W 1028,4 0 0,0
18.09.2019 01:00:00 5,5 4,0 - - 8 4 - - W 1028,1 - 0,0
18.09.2019 00:00:00 6,5 4,0 - - 5 3 - - WNW 1028,2 0 0,0
17.09.2019 23:00:00 7,7 4,4 - - 5 3 - - NNW 1028,0 0 0,0
17.09.2019 22:00:00 8,1 4,9 - - 4 2 - - W 1027,9 0 0,0
17.09.2019 21:00:00 8,8 5,0 - - 5 3 - - N 1027,4 0 0,0
17.09.2019 20:00:00 10,1 5,1 - - 5 3 - - N 1027,1 0 0,0
17.09.2019 19:00:00 12,1 5,5 - - 11 6 - - N 1026,5 48 0,0
17.09.2019 18:00:00 13,8 4,6 - - 16 9 - - N 1026,0 60 0,0
17.09.2019 17:00:00 14,7 3,4 - - 16 9 - - N 1025,8 60 0,0
17.09.2019 16:00:00 15,6 5,3 - - 18 10 - - N 1025,4 48 0,0
17.09.2019 15:00:00 14,9 6,9 - - 18 10 - - N 1025,2 30 0,0
17.09.2019 14:00:00 14,9 7,3 - - 18 10 - - N 1025,0 18 0,0
17.09.2019 13:00:00 15,4 8,2 - - 16 9 - - NNW 1024,6 24 0,0
17.09.2019 12:00:00 14,9 8,4 - - 16 9 - - NNW 1024,5 36 0,0
17.09.2019 11:00:00 13,5 9,1 - - 15 8 - - NW 1024,4 42 0,0
17.09.2019 10:00:00 12,4 9,4 16,2 16,0 15 8 - - NW 1024,0 54 0,0
17.09.2019 09:00:00 10,5 9,3 - - 13 7 - - NW 1023,5 60 0,0
17.09.2019 08:00:00 8,1 8,0 - - 11 6 - - WNW 1023,2 30 0,0
17.09.2019 07:00:00 7,3 7,2 - - 11 6 - - W 1022,8 0 0,0
17.09.2019 06:00:00 7,9 7,8 - - 8 4 - - WNW 1022,3 0 0,0
17.09.2019 05:00:00 7,9 7,8 - - 9 5 - - W 1022,1 0 0,0
17.09.2019 04:00:00 8,2 8,2 - - 9 5 - - W 1022,3 0 0,2
17.09.2019 03:00:00 6,3 6,2 - - 4 2 - - SW 1022,4 0 0,0
17.09.2019 02:00:00 6,4 6,3 - - 4 2 - - SW 1022,4 0 0,0
17.09.2019 01:00:00 6,5 6,2 - - 2 1 - - SSW 1022,6 - 0,0
17.09.2019 00:00:00 7,3 6,9 - - 2 1 - - E 1022,7 0 0,0
16.09.2019 23:00:00 8,6 8,4 - - 0 0 - - N 1022,7 0 0,0
16.09.2019 22:00:00 8,7 8,0 - - 4 2 - - N 1022,9 0 0,0
16.09.2019 21:00:00 10,2 9,5 - - 4 2 - - N 1022,7 0 0,0
16.09.2019 20:00:00 11,9 9,8 - - 4 2 - - NNW 1022,5 0 0,0
16.09.2019 19:00:00 14,0 11,0 - - 5 3 - - N 1022,2 0 0,0
16.09.2019 18:00:00 14,3 10,8 - - 8 4 - - NNW 1021,7 0 0,0
16.09.2019 17:00:00 14,4 11,8 - - 11 6 - - N 1021,8 0 0,0
16.09.2019 16:00:00 15,0 11,8 - - 11 6 - - N 1021,8 0 0,0
16.09.2019 15:00:00 15,2 12,1 - - 11 6 - - NNW 1021,8 0 0,0
16.09.2019 14:00:00 14,6 13,6 - - 4 2 - - N 1021,7 0 0,0
16.09.2019 13:00:00 13,6 13,0 - - 9 5 - - N 1021,8 0 0,0
16.09.2019 12:00:00 13,4 12,8 - - 9 5 - - N 1021,7 0 0,0
16.09.2019 11:00:00 13,2 12,9 - - 8 4 - - NE 1021,5 0 0,0
16.09.2019 10:00:00 13,1 12,8 16,7 16,0 8 4 - - ENE 1021,3 0 0,0
16.09.2019 09:00:00 12,8 12,6 - - 5 3 - - NE 1021,0 0 0,0
16.09.2019 08:00:00 12,6 12,4 - - 5 3 - - NE 1020,6 0 0,6
16.09.2019 07:00:00 12,4 12,3 - - 5 3 - - ENE 1020,5 0 0,4
16.09.2019 06:00:00 12,3 12,0 - - 8 4 - - NE 1020,3 0 0,4
16.09.2019 05:00:00 12,4 12,0 - - 8 4 - - ENE 1020,5 0 0,2
16.09.2019 04:00:00 12,6 11,8 - - 5 3 - - NE 1020,9 0 0,0
16.09.2019 03:00:00 12,6 11,6 - - 8 4 - - E 1021,2 0 0,0
16.09.2019 02:00:00 13,2 12,4 - - 8 4 - - NE 1021,6 0 0,2
16.09.2019 01:00:00 14,3 13,3 - - 8 4 - - NE 1021,8 - 0,0
16.09.2019 00:00:00 15,1 13,2 - - 9 5 - - NE 1021,8 0 0,0
15.09.2019 23:00:00 15,5 12,8 - - 8 4 - - NE 1022,0 0 0,0
15.09.2019 22:00:00 16,3 13,1 - - 9 5 - - NE 1022,0 0 0,0
15.09.2019 21:00:00 17,6 13,4 - - 9 5 - - E 1022,2 0 0,0
15.09.2019 20:00:00 17,8 13,3 - - 8 4 - - NE 1022,1 0 0,0
15.09.2019 19:00:00 18,9 13,2 - - 11 6 - - NNE 1021,9 0 0,0
15.09.2019 18:00:00 20,9 13,4 - - 15 8 - - NNW 1021,8 12 0,0
15.09.2019 17:00:00 22,0 13,5 - - 11 6 - - NNW 1021,7 0 0,0
15.09.2019 16:00:00 23,0 13,7 - - 11 6 - - WNW 1021,9 54 0,0
15.09.2019 15:00:00 22,3 13,6 - - 18 10 - - WNW 1022,4 42 0,0
15.09.2019 14:00:00 22,1 13,1 - - 16 9 - - WNW 1022,6 60 0,0
15.09.2019 13:00:00 21,6 12,8 - - 16 9 - - WNW 1023,3 60 0,0
15.09.2019 12:00:00 20,6 12,2 - - 15 8 - - WNW 1023,3 60 0,0
15.09.2019 11:00:00 18,8 12,1 - - 18 10 - - WNW 1023,3 60 0,0
15.09.2019 10:00:00 17,9 11,0 16,5 16,0 22 12 - - W 1023,4 60 0,0
15.09.2019 09:00:00 14,7 9,0 - - 22 12 - - W 1023,3 60 0,0
15.09.2019 08:00:00 12,1 8,2 - - 15 8 - - WSW 1023,1 12 0,0
15.09.2019 07:00:00 11,0 7,6 - - 13 7 - - SW 1023,2 0 0,0
15.09.2019 06:00:00 10,8 7,7 - - 15 8 - - WSW 1023,3 0 0,0
15.09.2019 05:00:00 10,8 7,6 - - 16 9 - - SW 1023,1 0 0,0
15.09.2019 04:00:00 11,6 8,3 - - 15 8 - - SW 1023,6 0 0,0
15.09.2019 03:00:00 12,2 9,6 - - 15 8 - - SW 1024,3 0 0,0
15.09.2019 02:00:00 12,4 10,5 - - 13 7 - - SW 1025,1 0 0,0
15.09.2019 01:00:00 13,0 11,4 - - 13 7 - - SSW 1025,6 - 0,0
15.09.2019 00:00:00 13,4 11,7 - - 13 7 - - SSW 1026,1 0 0,0
14.09.2019 23:00:00 13,5 11,5 - - 13 7 - - SSW 1026,5 0 0,0
14.09.2019 22:00:00 13,4 10,4 - - 11 6 - - S 1027,0 0 0,0
14.09.2019 21:00:00 14,4 10,0 - - 11 6 - - S 1027,6 0 0,0
14.09.2019 20:00:00 16,1 10,8 - - 11 6 - - S 1027,7 0 0,0
14.09.2019 19:00:00 18,6 10,7 - - 11 6 - - S 1027,7 36 0,0
14.09.2019 18:00:00 20,4 4,8 - - 15 8 - - SW 1027,9 12 0,0
14.09.2019 17:00:00 21,4 5,1 - - 13 7 - - SW 1028,3 54 0,0
14.09.2019 16:00:00 21,5 5,1 - - 9 5 - - SSW 1029,2 60 0,0
14.09.2019 15:00:00 21,1 5,9 - - 11 6 - - S 1030,4 60 0,0
14.09.2019 14:00:00 20,1 6,2 - - 9 5 - - S 1031,2 60 0,0
14.09.2019 13:00:00 20,4 7,2 - - 8 4 - - S 1032,3 60 0,0
14.09.2019 12:00:00 18,1 5,3 - - 9 5 - - S 1033,1 60 0,0
14.09.2019 11:00:00 16,9 7,7 - - 8 4 - - SSE 1033,8 60 0,0
14.09.2019 10:00:00 16,3 9,5 16,5 16,0 9 5 - - E 1033,9 60 0,0
14.09.2019 09:00:00 11,7 10,6 - - 2 1 - - NNE 1034,4 54 0,0
14.09.2019 08:00:00 7,6 7,6 - - 2 1 - - ENE 1034,4 42 0,0
14.09.2019 07:00:00 5,3 5,2 - - 2 1 - - ENE 1034,6 0 0,0
14.09.2019 06:00:00 4,3 4,0 - - 2 1 - - NE 1034,8 0 0,0
14.09.2019 05:00:00 5,3 5,2 - - 2 1 - - N 1035,0 0 0,0
14.09.2019 04:00:00 5,2 4,9 - - 2 1 - - N 1035,4 0 0,0
14.09.2019 03:00:00 5,5 5,1 - - 2 1 - - NE 1035,7 0 0,0
14.09.2019 02:00:00 6,1 5,4 - - 4 2 - - NNW 1036,2 0 0,0
14.09.2019 01:00:00 6,7 5,8 - - 2 1 - - E 1036,3 - 0,0
14.09.2019 00:00:00 7,6 6,9 - - 5 3 - - E 1036,2 0 0,0
13.09.2019 23:00:00 7,6 5,3 - - 5 3 - - NE 1036,6 0 0,0
13.09.2019 22:00:00 9,4 6,7 - - 4 2 - - NE 1036,7 0 0,0
13.09.2019 21:00:00 10,6 5,3 - - 5 3 - - E 1036,2 0 0,0
13.09.2019 20:00:00 13,2 6,1 - - 5 3 - - ENE 1036,0 12 0,0
13.09.2019 19:00:00 15,5 4,8 - - 8 4 - - NE 1035,5 60 0,0
13.09.2019 18:00:00 16,9 5,1 - - 13 7 - - NNE 1035,3 60 0,0
13.09.2019 17:00:00 18,3 4,3 - - 13 7 - - NNE 1035,1 60 0,0
13.09.2019 16:00:00 18,5 5,0 - - 13 7 - - N 1035,0 60 0,0
13.09.2019 15:00:00 18,1 5,6 - - 11 6 - - N 1034,7 60 0,0
13.09.2019 14:00:00 18,3 7,5 - - 9 5 - - NNW 1034,8 60 0,0
13.09.2019 13:00:00 17,7 7,6 - - 13 7 - - N 1034,9 60 0,0
13.09.2019 12:00:00 17,0 8,3 - - 13 7 - - NNW 1034,6 54 0,0
13.09.2019 11:00:00 16,6 10,1 - - 13 7 - - N 1034,4 54 0,0
13.09.2019 10:00:00 15,2 10,4 16,7 16,0 13 7 - - N 1034,2 42 0,0
13.09.2019 09:00:00 14,6 10,4 - - 13 7 - - NNW 1033,2 60 0,0
13.09.2019 08:00:00 13,3 9,8 - - 11 6 - - NW 1032,5 24 0,0
13.09.2019 07:00:00 13,7 10,1 - - 13 7 - - NNW 1031,8 0 0,0
13.09.2019 06:00:00 14,9 12,9 - - 9 5 - - WNW 1031,0 0 0,0
13.09.2019 05:00:00 15,6 12,3 - - 13 7 - - NNW 1030,2 0 0,0
13.09.2019 04:00:00 16,0 12,1 - - 18 10 - - NNW 1029,5 0 0,0
13.09.2019 03:00:00 17,2 14,3 - - 15 8 - - WNW 1028,4 0 0,0
13.09.2019 02:00:00 18,0 14,4 - - 21 11 - - WNW 1027,8 0 0,0
13.09.2019 01:00:00 18,7 14,1 - - 24 13 - - W 1027,4 - 0,0
13.09.2019 00:00:00 19,2 13,6 - - 29 16 - - W 1026,7 0 0,0
12.09.2019 23:00:00 19,8 12,8 - - 28 15 - - W 1026,4 0 0,0
12.09.2019 22:00:00 20,3 12,1 - - 28 15 46 25 W 1025,8 0 0,0
12.09.2019 21:00:00 21,0 10,5 - - 35 19 50 27 W 1025,4 0 0,0
12.09.2019 20:00:00 21,9 14,4 - - 31 17 - - WSW 1024,6 0 0,0
12.09.2019 19:00:00 22,5 14,6 - - 28 15 - - WSW 1024,2 0 0,0
12.09.2019 18:00:00 23,5 14,6 - - 29 16 - - WSW 1024,2 0 0,0
12.09.2019 17:00:00 23,2 15,0 - - 22 12 - - SW 1023,8 30 0,0
12.09.2019 16:00:00 22,4 15,0 - - 24 13 - - SW 1024,4 0 0,0
12.09.2019 15:00:00 22,9 14,4 - - 29 16 52 28 WSW 1024,6 36 0,0
12.09.2019 14:00:00 24,6 14,1 - - 37 20 52 28 WSW 1024,8 42 0,0
12.09.2019 13:00:00 21,5 13,9 - - 29 16 - - WSW 1025,2 18 0,0
12.09.2019 12:00:00 22,5 13,3 - - 26 14 - - SW 1025,4 60 0,0
12.09.2019 11:00:00 20,1 11,7 - - 22 12 - - WSW 1025,5 60 0,0
12.09.2019 10:00:00 18,2 12,3 16,2 16,0 24 13 - - WSW 1025,3 60 0,0
12.09.2019 09:00:00 15,7 12,5 - - 16 9 - - SW 1025,2 60 0,0
12.09.2019 08:00:00 13,5 11,3 - - 13 7 - - SW 1025,0 60 0,0
12.09.2019 07:00:00 11,5 9,7 - - 13 7 - - WSW 1024,4 0 0,0
12.09.2019 06:00:00 12,0 10,2 - - 8 4 - - SSW 1023,7 0 0,0
12.09.2019 05:00:00 12,3 9,4 - - 11 6 - - WSW 1023,7 0 0,0

tt = temperature
td = dewpoint
tt -20cm = temperature -20cm
tt -100cm = temperature -100cm
ff = wind speed
fx = gusts
dd = wind direction
ppp = reduced air pressure
sd = sunshine duration
rr = precipitation

Next stations